Time;durP1;ratioP1;P1;durP2;ratioP2;P2;SDS_P1;SDS_P2;PMS_P1;PMS_P2;Temp;Humidity;BMP_temperature;BMP_pressure;BME280_temperature;BME280_humidity;BME280_pressure;Samples;Min_cycle;Max_cycle;Signal;HPM_P1;HPM_P2
2023/03/12 00:02:13;;;;;;;5.10;4.63;;;;;;;-1.00;86.93;151115.69;5058614;28;20452;-77
2023/03/12 00:04:40;;;;;;;7.63;3.90;;;;;;;-1.06;85.92;151100.34;5067064;28;20444;-77
2023/03/12 00:07:07;;;;;;;4.90;4.10;;;;;;;-1.05;86.71;151104.19;5077580;28;20510;-77
2023/03/12 00:09:35;;;;;;;10.17;6.60;;;;;;;-0.96;86.80;151125.97;5090733;28;20519;-77
2023/03/12 00:12:02;;;;;;;12.13;7.97;;;;;;;-0.94;85.60;151131.09;5093182;28;20555;-78
2023/03/12 00:14:29;;;;;;;10.63;8.13;;;;;;;-0.86;85.48;151151.63;5053548;28;20458;-78
2023/03/12 00:16:57;;;;;;;8.23;6.70;;;;;;;-0.90;85.14;151141.38;5087820;28;20471;-76
2023/03/12 00:19:24;;;;;;;12.43;6.77;;;;;;;-0.93;86.54;151134.97;5073911;28;20440;-77
2023/03/12 00:21:50;;;;;;;6.90;6.20;;;;;;;-0.97;86.12;151123.41;5083269;28;20448;-79
2023/03/12 00:24:17;;;;;;;8.03;6.50;;;;;;;-0.95;86.12;151128.50;5083400;28;20475;-78
2023/03/12 00:26:44;;;;;;;10.23;6.70;;;;;;;-0.94;86.28;151131.09;5064283;28;20501;-79
2023/03/12 00:29:10;;;;;;;8.90;6.10;;;;;;;-0.93;86.16;151134.97;5056979;28;20434;-79
2023/03/12 00:31:37;;;;;;;8.57;6.83;;;;;;;-0.91;86.65;151138.78;5084753;28;20526;-79
2023/03/12 00:34:05;;;;;;;10.37;7.67;;;;;;;-0.85;88.55;151154.19;5089725;28;20494;-79
2023/03/12 00:36:33;;;;;;;9.50;8.13;;;;;;;-0.84;89.74;151156.72;5072683;28;20441;-79
2023/03/12 00:39:00;;;;;;;9.87;7.03;;;;;;;-0.84;90.20;151158.03;5086013;28;20444;-79
2023/03/12 00:41:27;;;;;;;9.43;7.53;;;;;;;-0.86;90.25;151152.91;5077199;28;20442;-79
2023/03/12 00:43:54;;;;;;;9.73;8.30;;;;;;;-0.89;90.11;151143.91;5090385;28;20431;-79
2023/03/12 00:46:21;;;;;;;11.10;6.90;;;;;;;-0.97;88.83;151124.69;5057453;28;20730;-78
2023/03/12 00:48:48;;;;;;;12.33;8.37;;;;;;;-0.99;89.74;151118.28;5064428;28;21043;-79
2023/03/12 00:51:16;;;;;;;8.70;7.20;;;;;;;-1.05;89.92;151102.88;5051815;28;20574;-78
2023/03/12 00:53:43;;;;;;;7.50;6.73;;;;;;;-1.07;90.17;151099.06;5059976;28;20432;-78
2023/03/12 00:56:09;;;;;;;10.00;8.13;;;;;;;-1.11;90.14;151088.78;5079570;28;20450;-78
2023/03/12 00:58:37;;;;;;;9.30;7.27;;;;;;;-1.09;91.16;151092.66;5052631;28;21033;-78
2023/03/12 01:01:04;;;;;;;13.97;8.60;;;;;;;-1.07;91.00;151097.78;5066228;28;20463;-78
2023/03/12 01:03:31;;;;;;;9.70;7.10;;;;;;;-1.06;91.71;151101.59;5056263;28;20468;-78
2023/03/12 01:05:58;;;;;;;9.53;7.27;;;;;;;-1.08;90.96;151095.19;5067263;28;20444;-78
2023/03/12 01:08:26;;;;;;;8.37;7.33;;;;;;;-1.11;91.16;151087.53;5067993;28;20917;-79
2023/03/12 01:10:52;;;;;;;10.03;7.73;;;;;;;-1.11;90.34;151087.53;5089296;28;20494;-78
2023/03/12 01:13:19;;;;;;;9.67;8.23;;;;;;;-1.10;91.29;151090.06;5065913;28;20475;-78
2023/03/12 01:15:46;;;;;;;10.10;7.87;;;;;;;-1.10;91.16;151090.06;5067581;28;20513;-78
2023/03/12 01:18:13;;;;;;;11.20;8.50;;;;;;;-1.10;90.98;151090.06;5064730;28;20472;-79
2023/03/12 01:20:40;;;;;;;10.50;8.00;;;;;;;-1.09;91.29;151093.94;5062833;28;20512;-79
2023/03/12 01:23:07;;;;;;;10.03;7.83;;;;;;;-1.09;90.87;151093.94;5068768;28;20507;-78
2023/03/12 01:25:36;;;;;;;11.20;7.73;;;;;;;-1.06;91.62;151100.34;5061973;28;20505;-78
2023/03/12 01:28:03;;;;;;;12.80;7.67;;;;;;;-1.07;91.01;151099.06;5066956;28;20447;-79
2023/03/12 01:30:30;;;;;;;9.33;7.70;;;;;;;-1.02;91.83;151110.59;5056115;28;20528;-79
2023/03/12 01:32:57;;;;;;;8.10;6.57;;;;;;;-0.98;92.06;151120.88;5056575;28;20455;-79
2023/03/12 01:35:25;;;;;;;9.10;6.83;;;;;;;-0.95;92.00;151128.50;5066792;28;20451;-79
2023/03/12 01:37:52;;;;;;;10.00;7.17;;;;;;;-0.92;92.28;151137.50;5051159;28;20943;-79
2023/03/12 01:40:20;;;;;;;9.80;6.67;;;;;;;-0.86;92.77;151151.63;5051341;28;20539;-79
2023/03/12 01:42:53;;;;;;;10.70;7.30;;;;;;;-0.76;93.39;151177.25;5086992;28;20456;-79
2023/03/12 01:45:57;;;;;;;8.80;7.33;;;;;;;-0.69;93.58;151195.25;5050295;28;20750;-79
2023/03/12 01:48:24;;;;;;;8.77;7.30;;;;;;;-0.63;93.43;151210.59;5059635;28;20457;-79
2023/03/12 01:50:51;;;;;;;9.30;7.57;;;;;;;-0.57;94.96;151226.00;5085418;28;20433;-79
2023/03/12 01:53:20;;;;;;;7.97;7.07;;;;;;;-0.53;95.19;151235.00;5048915;28;20537;-79
2023/03/12 01:55:47;;;;;;;9.27;7.20;;;;;;;-0.55;94.52;151231.13;5068104;28;20436;-79
2023/03/12 01:58:15;;;;;;;10.20;7.73;;;;;;;-0.53;94.39;151235.00;5052165;28;20450;-79
2023/03/12 02:00:42;;;;;;;9.17;7.60;;;;;;;-0.50;95.31;151242.69;5053454;28;20444;-79
2023/03/12 02:03:10;;;;;;;10.70;8.27;;;;;;;-0.48;95.77;151249.09;5065037;28;20544;-79
2023/03/12 02:05:42;;;;;;;11.53;8.60;;;;;;;-0.44;96.61;151258.03;5044421;28;20462;-78
2023/03/12 02:08:10;;;;;;;11.60;8.00;;;;;;;-0.44;96.09;151259.34;5050689;28;20506;-79
2023/03/12 02:10:36;;;;;;;14.30;8.43;;;;;;;-0.44;95.19;151259.34;5069226;28;20445;-78
2023/03/12 02:13:03;;;;;;;10.00;7.13;;;;;;;-0.41;96.33;151267.03;5046711;28;20595;-79
2023/03/12 02:15:32;;;;;;;9.70;8.43;;;;;;;-0.41;95.19;151267.03;5065064;28;20502;-79
2023/03/12 02:17:58;;;;;;;9.30;7.90;;;;;;;-0.41;95.55;151267.03;5040060;28;20519;-79
2023/03/12 02:20:30;;;;;;;9.97;7.50;;;;;;;-0.42;95.43;151264.47;5065569;28;20456;-79
2023/03/12 02:23:02;;;;;;;8.57;7.57;;;;;;;-0.37;96.22;151276.03;5067390;28;20853;-79
2023/03/12 02:25:35;;;;;;;12.60;9.70;;;;;;;-0.36;95.61;151279.88;5067741;28;20456;-79
2023/03/12 02:28:05;;;;;;;8.33;7.30;;;;;;;-0.31;95.80;151291.41;5048772;28;20827;-79
2023/03/12 02:30:33;;;;;;;11.73;8.47;;;;;;;-0.25;96.97;151308.09;5063929;28;20452;-79
2023/03/12 02:33:02;;;;;;;13.00;7.80;;;;;;;-0.31;95.35;151292.69;5049021;28;20476;-79
2023/03/12 02:35:29;;;;;;;11.10;7.90;;;;;;;-0.25;96.29;151306.81;5036729;28;20915;-79
2023/03/12 02:37:56;;;;;;;8.83;7.50;;;;;;;-0.28;95.33;151299.09;5081261;28;20460;-79
2023/03/12 02:40:26;;;;;;;10.80;7.80;;;;;;;-0.23;96.58;151313.22;5042893;28;20452;-79
2023/03/12 02:42:55;;;;;;;10.23;7.77;;;;;;;-0.25;96.10;151308.09;5049195;28;20983;-79
2023/03/12 02:45:22;;;;;;;11.87;8.60;;;;;;;-0.24;95.98;151309.38;5063066;28;20446;-79
2023/03/12 02:47:49;;;;;;;11.60;8.20;;;;;;;-0.25;96.57;151308.09;5060665;28;20495;-78
2023/03/12 02:50:16;;;;;;;9.40;8.47;;;;;;;-0.28;96.01;151299.09;5061070;28;20458;-78
2023/03/12 02:52:43;;;;;;;9.27;8.10;;;;;;;-0.32;96.39;151288.84;5059020;28;20573;-79
2023/03/12 02:55:10;;;;;;;12.30;8.27;;;;;;;-0.34;96.03;151284.97;5049706;28;20534;-79
2023/03/12 02:57:37;;;;;;;13.57;8.70;;;;;;;-0.35;96.84;151282.44;5048845;28;20543;-79
2023/03/12 03:00:10;;;;;;;11.70;8.73;;;;;;;-0.30;97.21;151295.28;5051682;28;20444;-79
2023/03/12 03:02:38;;;;;;;11.43;8.90;;;;;;;-0.31;97.86;151291.41;5051634;28;20451;-78
2023/03/12 03:05:05;;;;;;;10.13;7.90;;;;;;;-0.34;97.19;151284.97;5070423;28;20457;-79
2023/03/12 03:07:32;;;;;;;9.47;8.50;;;;;;;-0.35;97.11;151282.44;5051107;28;20449;-78
2023/03/12 03:10:02;;;;;;;11.70;8.80;;;;;;;-0.38;96.95;151274.75;5084822;28;20451;-79
2023/03/12 03:12:29;;;;;;;10.27;8.97;;;;;;;-0.42;96.02;151264.47;5055455;28;20517;-79
2023/03/12 03:14:57;;;;;;;10.23;8.27;;;;;;;-0.39;96.75;151272.16;5067489;28;20457;-79
2023/03/12 03:17:26;;;;;;;9.63;8.70;;;;;;;-0.40;96.82;151268.34;5050002;28;20468;-79
2023/03/12 03:19:53;;;;;;;10.20;8.23;;;;;;;-0.40;98.06;151268.34;5085982;28;20445;-79
2023/03/12 03:22:21;;;;;;;8.03;6.97;;;;;;;-0.37;98.84;151277.28;5052386;28;20438;-79
2023/03/12 03:24:48;;;;;;;12.00;7.70;;;;;;;-0.37;99.16;151277.28;5052594;28;20437;-79
2023/03/12 03:27:15;;;;;;;8.60;7.47;;;;;;;-0.41;98.32;151267.03;5086375;28;20570;-79
2023/03/12 03:29:42;;;;;;;12.87;7.30;;;;;;;-0.40;97.79;151269.63;5052879;28;20510;-79
2023/03/12 03:32:08;;;;;;;8.77;7.13;;;;;;;-0.30;98.49;151293.97;5052209;28;20572;-79
2023/03/12 03:34:37;;;;;;;9.10;8.00;;;;;;;-0.25;100.00;151306.81;5065085;28;20456;-79
2023/03/12 03:37:04;;;;;;;8.10;7.30;;;;;;;-0.27;99.33;151302.97;5049076;28;20457;-79
2023/03/12 03:39:33;;;;;;;7.87;6.90;;;;;;;-0.21;100.00;151317.03;5080015;28;20516;-78
2023/03/12 03:42:00;;;;;;;10.93;7.63;;;;;;;-0.22;99.53;151315.81;5052429;28;20482;-78
2023/03/12 03:44:29;;;;;;;8.50;6.93;;;;;;;-0.19;99.49;151322.22;5064549;28;20457;-79
2023/03/12 03:46:56;;;;;;;10.90;6.77;;;;;;;-0.16;100.00;151331.16;5059945;28;20843;-78
2023/03/12 03:49:23;;;;;;;12.23;7.87;;;;;;;-0.15;100.00;151333.75;5067520;28;20939;-78
2023/03/12 03:51:51;;;;;;;7.83;7.10;;;;;;;-0.14;100.00;151335.03;5086614;28;20477;-78
2023/03/12 03:54:25;;;;;;;9.37;7.67;;;;;;;-0.10;100.00;151345.28;5051483;28;20839;-77
2023/03/12 03:56:52;;;;;;;9.43;6.93;;;;;;;-0.09;100.00;151347.88;5065352;28;20877;-78
2023/03/12 03:59:19;;;;;;;9.60;7.27;;;;;;;-0.11;100.00;151344.00;5090263;28;20471;-78
2023/03/12 04:01:47;;;;;;;9.00;7.50;;;;;;;-0.10;100.00;151345.28;5052865;28;20946;-78
2023/03/12 04:04:14;;;;;;;9.80;7.13;;;;;;;-0.09;100.00;151349.16;5049349;28;20453;-78
2023/03/12 04:06:41;;;;;;;8.93;6.97;;;;;;;-0.06;100.00;151356.88;5052555;28;20457;-78
2023/03/12 04:09:09;;;;;;;10.30;7.93;;;;;;;-0.06;100.00;151356.88;5053981;28;21014;-78
2023/03/12 04:11:38;;;;;;;7.63;6.77;;;;;;;-0.02;100.00;151367.09;5069957;28;20894;-77
2023/03/12 04:14:06;;;;;;;10.90;7.27;;;;;;;-0.04;100.00;151361.97;5067949;28;20462;-78
2023/03/12 04:16:35;;;;;;;7.50;6.70;;;;;;;-0.01;100.00;151369.69;5084977;28;20495;-78
2023/03/12 04:19:02;;;;;;;7.87;7.00;;;;;;;0.00;100.00;151372.22;5051827;28;20691;-78
2023/03/12 04:21:29;;;;;;;8.33;6.20;;;;;;;0.06;100.00;151386.34;5081023;28;20472;-78
2023/03/12 04:23:56;;;;;;;7.50;6.73;;;;;;;0.05;100.00;151382.50;5068886;28;20469;-78
2023/03/12 04:26:28;;;;;;;9.70;7.03;;;;;;;0.08;100.00;151390.22;5068842;28;20538;-78
2023/03/12 04:28:56;;;;;;;8.67;6.70;;;;;;;0.14;100.00;151405.59;5067464;28;20813;-78
2023/03/12 04:31:23;;;;;;;9.10;7.17;;;;;;;0.12;100.00;151400.47;5050199;28;20463;-78
2023/03/12 04:33:50;;;;;;;7.93;6.80;;;;;;;0.13;100.00;151403.06;5059024;28;20478;-78
2023/03/12 04:36:19;;;;;;;9.00;7.93;;;;;;;0.16;100.00;151410.75;5050395;28;20930;-78
2023/03/12 04:38:48;;;;;;;9.80;8.10;;;;;;;0.12;100.00;151400.47;5062637;28;20535;-77
2023/03/12 04:41:18;;;;;;;10.20;7.53;;;;;;;0.14;100.00;151405.59;5065966;28;20539;-78
2023/03/12 04:44:05;;;;;;;7.70;6.90;;;;;;;0.18;100.00;151415.88;5073842;28;20479;-77
2023/03/12 04:46:34;;;;;;;9.50;8.33;;;;;;;0.18;100.00;151415.88;5056164;28;20491;-77
2023/03/12 04:49:01;;;;;;;7.70;7.00;;;;;;;0.21;100.00;151423.59;5044937;28;20541;-77
2023/03/12 04:51:31;;;;;;;8.80;7.43;;;;;;;0.24;100.00;151431.28;5060556;28;20446;-77
2023/03/12 04:53:58;;;;;;;7.73;6.83;;;;;;;0.21;100.00;151423.59;5051909;28;20469;-78
2023/03/12 04:56:25;;;;;;;9.00;7.30;;;;;;;0.23;100.00;151428.72;5043111;28;20971;-77
2023/03/12 04:58:52;;;;;;;9.13;7.90;;;;;;;0.22;100.00;151426.13;5063785;28;20470;-77
2023/03/12 05:01:24;;;;;;;12.27;8.27;;;;;;;0.23;100.00;151428.72;5054618;28;20457;-77
2023/03/12 05:03:51;;;;;;;8.00;7.20;;;;;;;0.24;100.00;151431.28;5057532;28;20454;-77
2023/03/12 05:06:18;;;;;;;10.30;7.93;;;;;;;0.22;100.00;151426.13;5078450;28;20460;-77
2023/03/12 05:08:45;;;;;;;9.70;7.00;;;;;;;0.26;100.00;151437.72;5046613;28;20427;-77
2023/03/12 05:11:13;;;;;;;8.90;8.00;;;;;;;0.27;100.00;151438.97;5058537;28;20454;-77
2023/03/12 05:13:39;;;;;;;9.00;8.10;;;;;;;0.28;100.00;151442.84;5048992;28;20473;-78
2023/03/12 05:16:07;;;;;;;10.37;8.03;;;;;;;0.28;100.00;151442.84;5067902;28;20495;-78
2023/03/12 05:18:35;;;;;;;8.93;7.90;;;;;;;0.27;100.00;151438.97;5052961;28;20500;-77
2023/03/12 05:21:04;;;;;;;8.63;7.80;;;;;;;0.29;100.00;151444.13;5051542;28;20433;-77
2023/03/12 05:23:31;;;;;;;8.23;7.10;;;;;;;0.29;100.00;151445.38;5062172;28;20465;-77
2023/03/12 05:25:58;;;;;;;9.63;8.10;;;;;;;0.33;100.00;151454.38;5070788;28;20817;-77
2023/03/12 05:28:27;;;;;;;10.57;7.93;;;;;;;0.35;100.00;151459.50;5049373;28;20430;-77
2023/03/12 05:30:56;;;;;;;8.50;7.33;;;;;;;0.41;100.00;151476.22;5069224;28;20862;-77
2023/03/12 05:33:23;;;;;;;9.97;7.57;;;;;;;0.40;100.00;151472.31;5054077;28;21048;-77
2023/03/12 05:35:51;;;;;;;8.60;7.27;;;;;;;0.46;100.00;151487.75;5054386;28;20428;-77
2023/03/12 05:38:19;;;;;;;8.27;7.30;;;;;;;0.48;100.00;151492.88;5078062;28;20450;-76
2023/03/12 05:40:52;;;;;;;11.10;8.60;;;;;;;0.46;100.00;151487.75;5086161;28;20432;-79
2023/03/12 05:43:18;;;;;;;11.53;8.03;;;;;;;0.46;100.00;151487.75;5054055;28;20444;-79
2023/03/12 05:45:45;;;;;;;9.20;8.00;;;;;;;0.51;100.00;151500.56;5072298;28;20442;-79
2023/03/12 05:48:12;;;;;;;9.13;8.10;;;;;;;0.51;100.00;151500.56;5049396;28;20465;-79
2023/03/12 05:50:39;;;;;;;9.00;7.70;;;;;;;0.51;100.00;151500.56;5086451;28;20458;-78
2023/03/12 05:53:07;;;;;;;10.17;8.10;;;;;;;0.51;100.00;151500.56;5057678;28;20567;-78
2023/03/12 05:55:35;;;;;;;9.80;8.43;;;;;;;0.54;100.00;151508.28;5084687;28;20435;-78
2023/03/12 05:58:02;;;;;;;10.57;7.50;;;;;;;0.57;100.00;151516.00;5066587;28;20467;-78
2023/03/12 06:00:29;;;;;;;9.50;7.67;;;;;;;0.59;100.00;151521.13;5051404;28;20453;-78
2023/03/12 06:02:57;;;;;;;8.27;7.20;;;;;;;0.59;100.00;151521.13;5069596;28;20444;-78
2023/03/12 06:05:24;;;;;;;10.97;8.43;;;;;;;0.59;100.00;151522.41;5072822;28;20560;-78
2023/03/12 06:07:51;;;;;;;10.40;8.73;;;;;;;0.62;100.00;151528.81;5073862;28;20504;-78
2023/03/12 06:10:19;;;;;;;15.50;8.70;;;;;;;0.64;100.00;151533.94;5040277;28;20758;-78
2023/03/12 06:12:46;;;;;;;9.90;8.10;;;;;;;0.66;100.00;151537.84;5071959;28;20473;-78
2023/03/12 06:15:13;;;;;;;11.10;8.30;;;;;;;0.70;100.00;151548.09;5057144;28;20441;-78
2023/03/12 06:17:40;;;;;;;11.77;8.10;;;;;;;0.71;100.00;151550.66;5058297;28;20889;-78
2023/03/12 06:20:08;;;;;;;8.07;7.27;;;;;;;0.70;100.00;151549.38;5075985;28;20453;-78
2023/03/12 06:22:35;;;;;;;8.70;7.37;;;;;;;0.69;100.00;151546.78;5066169;28;20509;-78
2023/03/12 06:25:02;;;;;;;8.03;7.23;;;;;;;0.72;100.00;151554.50;5065099;28;20464;-78
2023/03/12 06:27:30;;;;;;;7.93;6.97;;;;;;;0.77;100.00;151567.34;5073793;28;20458;-78
2023/03/12 06:29:57;;;;;;;8.87;7.93;;;;;;;0.82;100.00;151580.16;5059882;28;20541;-78
2023/03/12 06:32:24;;;;;;;9.63;8.27;;;;;;;0.89;100.00;151596.88;5057524;28;21016;-78
2023/03/12 06:34:51;;;;;;;9.37;8.03;;;;;;;0.91;100.00;151603.31;5074403;28;20456;-78
2023/03/12 06:37:18;;;;;;;9.43;7.00;;;;;;;0.93;100.00;151607.13;5060279;28;20853;-78
2023/03/12 06:39:45;;;;;;;8.30;7.37;;;;;;;0.96;100.00;151616.16;5079002;28;20552;-78
2023/03/12 06:42:13;;;;;;;8.23;7.40;;;;;;;1.01;100.00;151628.97;5078572;28;21037;-78
2023/03/12 06:44:41;;;;;;;9.20;7.77;;;;;;;1.03;100.00;151632.88;5080488;28;20478;-78
2023/03/12 06:47:08;;;;;;;9.07;7.37;;;;;;;1.04;100.00;151635.41;5073654;28;20453;-78
2023/03/12 06:49:36;;;;;;;10.10;7.70;;;;;;;1.06;100.00;151641.81;5079422;28;20532;-78
2023/03/12 06:52:03;;;;;;;9.47;7.20;;;;;;;1.07;100.00;151644.41;5062448;28;20868;-78
2023/03/12 06:54:29;;;;;;;9.27;7.77;;;;;;;1.08;100.00;151647.00;5063091;28;20559;-78
2023/03/12 06:56:58;;;;;;;8.90;7.67;;;;;;;1.10;100.00;151652.13;5077433;28;20456;-78
2023/03/12 06:59:25;;;;;;;13.40;9.17;;;;;;;1.13;100.00;151658.53;5062375;28;20446;-78
2023/03/12 07:01:53;;;;;;;11.17;8.93;;;;;;;1.13;100.00;151659.84;5060154;28;20503;-78
2023/03/12 07:04:19;;;;;;;9.50;8.57;;;;;;;1.11;100.00;151654.66;5063511;28;20448;-79
2023/03/12 07:06:49;;;;;;;12.37;8.83;;;;;;;1.09;100.00;151648.25;5070621;28;20524;-79
2023/03/12 07:09:16;;;;;;;11.10;9.30;;;;;;;1.08;100.00;151645.69;5078014;28;20449;-78
2023/03/12 07:11:42;;;;;;;10.47;8.60;;;;;;;1.11;100.00;151653.41;5078543;28;20561;-78
2023/03/12 07:14:09;;;;;;;10.50;9.40;;;;;;;1.10;100.00;151652.13;5080114;28;20474;-78
2023/03/12 07:16:36;;;;;;;9.83;8.07;;;;;;;1.12;100.00;151657.25;5061756;28;20484;-78
2023/03/12 07:19:04;;;;;;;10.63;8.60;;;;;;;1.16;100.00;151667.56;5077098;28;20548;-78
2023/03/12 07:21:31;;;;;;;8.93;7.80;;;;;;;1.17;100.00;151670.09;5078386;28;20509;-78
2023/03/12 07:23:57;;;;;;;11.50;8.37;;;;;;;1.19;100.00;151675.22;5079697;28;20482;-78
2023/03/12 07:26:24;;;;;;;12.10;9.20;;;;;;;1.19;100.00;151675.22;5076981;28;20537;-78
2023/03/12 07:28:51;;;;;;;12.17;10.13;;;;;;;1.18;100.00;151672.69;5077369;28;20514;-78
2023/03/12 07:31:17;;;;;;;10.27;9.17;;;;;;;1.18;100.00;151672.69;5082650;28;20457;-78
2023/03/12 07:33:44;;;;;;;10.40;8.53;;;;;;;1.22;100.00;151681.63;5063170;28;20501;-78
2023/03/12 07:36:12;;;;;;;10.80;9.00;;;;;;;1.26;100.00;151691.94;5069607;28;20961;-78
2023/03/12 07:38:39;;;;;;;10.37;9.27;;;;;;;1.28;100.00;151697.06;5081043;28;20547;-78
2023/03/12 07:41:05;;;;;;;10.37;8.83;;;;;;;1.30;100.00;151702.19;5069509;28;20489;-78
2023/03/12 07:43:32;;;;;;;11.17;10.07;;;;;;;1.32;100.00;151706.06;5062189;28;20437;-78
2023/03/12 07:45:59;;;;;;;12.80;9.60;;;;;;;1.35;100.00;151713.78;5056422;28;20450;-78
2023/03/12 07:48:26;;;;;;;12.83;10.37;;;;;;;1.38;100.00;151722.75;5045006;28;20745;-78
2023/03/12 07:50:53;;;;;;;12.60;9.20;;;;;;;1.41;100.00;151729.16;5059866;28;20901;-79
2023/03/12 07:53:21;;;;;;;11.40;10.23;;;;;;;1.43;100.00;151734.34;5045512;28;20466;-78
2023/03/12 07:55:48;;;;;;;13.63;9.30;;;;;;;1.47;100.00;151744.59;5059790;28;20508;-78
2023/03/12 07:58:14;;;;;;;11.80;9.67;;;;;;;1.49;100.00;151749.72;5062542;28;20955;-78
2023/03/12 08:00:41;;;;;;;11.00;9.60;;;;;;;1.56;100.00;151769.00;5042826;28;20452;-78
2023/03/12 08:03:08;;;;;;;9.93;8.93;;;;;;;1.60;100.00;151779.31;5077441;28;20457;-78
2023/03/12 08:05:35;;;;;;;11.30;8.80;;;;;;;1.63;100.00;151787.03;5075960;28;20455;-78
2023/03/12 08:08:02;;;;;;;11.03;9.27;;;;;;;1.69;100.00;151801.16;5061696;28;20546;-78
2023/03/12 08:10:30;;;;;;;12.27;9.77;;;;;;;1.76;100.00;151819.13;5060415;28;20477;-78
2023/03/12 08:12:56;;;;;;;17.13;10.00;;;;;;;1.83;100.00;151837.13;5064717;28;20951;-78
2023/03/12 08:15:24;;;;;;;11.27;10.07;;;;;;;1.90;100.00;151855.16;5065541;28;20972;-78
2023/03/12 08:17:50;;;;;;;11.17;9.50;;;;;;;1.95;100.00;151868.00;5077948;28;20469;-78
2023/03/12 08:20:17;;;;;;;11.83;9.70;;;;;;;1.98;100.00;151874.41;5057120;28;20469;-78
2023/03/12 08:22:44;;;;;;;17.83;11.40;;;;;;;2.04;100.00;151889.84;5060092;28;20453;-78
2023/03/12 08:25:11;;;;;;;13.53;10.10;;;;;;;2.11;100.00;151909.13;5077528;28;20877;-78
2023/03/12 08:27:40;;;;;;;12.23;10.67;;;;;;;2.15;100.00;151919.41;5080464;28;20816;-78
2023/03/12 08:30:07;;;;;;;12.13;9.27;;;;;;;2.18;100.00;151927.13;5079507;28;20452;-78
2023/03/12 08:32:34;;;;;;;12.80;10.37;;;;;;;2.21;100.00;151934.84;5079803;28;20457;-78
2023/03/12 08:35:04;;;;;;;12.50;10.23;;;;;;;2.23;100.00;151939.97;5068520;28;20479;-78
2023/03/12 08:37:32;;;;;;;13.03;11.67;;;;;;;2.25;100.00;151943.84;5068581;28;20806;-78
2023/03/12 08:39:59;;;;;;;12.17;10.60;;;;;;;2.27;100.00;151950.28;5051864;28;20441;-78
2023/03/12 08:42:26;;;;;;;11.67;10.47;;;;;;;2.29;100.00;151954.13;5060114;28;20542;-78
2023/03/12 08:44:54;;;;;;;12.50;10.40;;;;;;;2.34;100.00;151968.25;5061376;28;20478;-78
2023/03/12 08:47:21;;;;;;;12.33;10.57;;;;;;;2.39;100.00;151981.13;5076947;28;20463;-78
2023/03/12 08:49:48;;;;;;;14.27;9.83;;;;;;;2.46;100.00;151999.09;5077795;28;20524;-78
2023/03/12 08:52:14;;;;;;;13.77;11.77;;;;;;;2.55;100.00;152020.97;5059820;28;20457;-78
2023/03/12 08:54:41;;;;;;;14.63;10.50;;;;;;;2.61;100.00;152035.13;5059515;28;20568;-78
2023/03/12 08:57:08;;;;;;;13.73;11.70;;;;;;;2.63;100.00;152040.25;5057615;28;20479;-78
2023/03/12 08:59:34;;;;;;;22.77;16.93;;;;;;;2.71;100.00;152060.84;5073615;28;20806;-78
2023/03/12 09:02:03;;;;;;;13.33;11.90;;;;;;;2.81;100.00;152087.84;5066362;28;20564;-78
2023/03/12 09:04:30;;;;;;;13.60;11.73;;;;;;;2.86;100.00;152099.47;5079387;28;20456;-78
2023/03/12 09:06:57;;;;;;;11.30;10.10;;;;;;;2.89;100.00;152108.44;5071661;28;20461;-78
2023/03/12 09:09:24;;;;;;;14.47;11.80;;;;;;;2.92;100.00;152114.88;5056876;28;20549;-78
2023/03/12 09:11:50;;;;;;;16.97;11.50;;;;;;;3.00;100.00;152135.47;5076977;28;20914;-78
2023/03/12 09:14:17;;;;;;;12.00;10.90;;;;;;;3.07;100.00;152153.50;5075256;28;20474;-78
2023/03/12 09:16:43;;;;;;;13.10;10.50;;;;;;;3.15;100.00;152174.03;5076732;28;20579;-78
2023/03/12 09:19:12;;;;;;;14.50;11.80;;;;;;;3.23;100.00;152194.63;5073887;28;20552;-78
2023/03/12 09:21:38;;;;;;;9.87;8.87;;;;;;;3.28;100.00;152206.25;5078268;28;20445;-78
2023/03/12 09:24:05;;;;;;;10.40;9.20;;;;;;;3.37;100.00;152230.69;5059435;28;20445;-78
2023/03/12 09:26:32;;;;;;;14.03;10.30;;;;;;;3.40;100.00;152237.13;5058419;28;20565;-78
2023/03/12 09:28:59;;;;;;;11.50;9.13;;;;;;;3.45;100.00;152251.28;5076454;28;20529;-78
2023/03/12 09:31:26;;;;;;;10.23;9.23;;;;;;;3.51;100.00;152266.75;5075708;28;20458;-79
2023/03/12 09:33:53;;;;;;;12.07;9.70;;;;;;;3.69;100.00;152313.09;5051754;28;20462;-78
2023/03/12 09:36:21;;;;;;;13.57;10.93;;;;;;;3.92;100.00;152369.75;5078686;28;20548;-78
2023/03/12 09:38:47;;;;;;;11.20;10.03;;;;;;;4.01;100.00;152392.91;5077033;28;20445;-78
2023/03/12 09:41:18;;;;;;;10.60;9.10;;;;;;;4.03;100.00;152398.03;5057590;28;20449;-78
2023/03/12 09:43:49;;;;;;;9.90;8.87;;;;;;;4.08;100.00;152410.91;5067949;28;20446;-79
2023/03/12 09:46:21;;;;;;;10.80;9.60;;;;;;;4.11;100.00;152418.66;5077183;28;20456;-78
2023/03/12 09:48:50;;;;;;;14.00;10.00;;;;;;;4.16;100.00;152431.53;5077775;28;20715;-79
2023/03/12 09:51:22;;;;;;;10.37;8.13;;;;;;;4.10;100.00;152417.34;5057766;28;20499;-79
2023/03/12 09:53:52;;;;;;;10.53;8.20;;;;;;;4.22;100.00;152447.00;5061263;28;20945;-79
2023/03/12 09:56:20;;;;;;;10.27;8.30;;;;;;;4.32;100.00;152472.75;5074216;28;20905;-78
2023/03/12 09:58:48;;;;;;;16.07;8.83;;;;;;;4.48;100.00;152512.66;5045398;28;20449;-78
2023/03/12 10:01:30;;;;;;;10.57;7.90;;;;;;;4.50;100.00;152519.09;5059479;28;20449;-79
2023/03/12 10:04:14;;;;;;;8.53;7.40;;;;;;;4.50;100.00;152519.09;5077385;28;20431;-78
2023/03/12 10:06:48;;;;;;;7.97;6.67;;;;;;;4.75;100.00;152583.56;5056214;28;20461;-79
2023/03/12 10:09:27;;;;;;;9.17;7.67;;;;;;;4.93;100.00;152629.94;5062369;28;20453;-78
2023/03/12 10:11:59;;;;;;;10.70;8.20;;;;;;;5.06;100.00;152660.84;5058348;28;20465;-78
2023/03/12 10:14:38;;;;;;;9.37;7.27;;;;;;;5.16;100.00;152686.66;5078129;28;20510;-79
2023/03/12 10:17:17;;;;;;;10.40;7.60;;;;;;;5.38;100.00;152743.34;5063308;28;20896;-78
2023/03/12 10:19:53;;;;;;;9.07;7.00;;;;;;;5.33;100.00;152730.47;5053383;28;20438;-79
2023/03/12 10:22:29;;;;;;;7.47;6.50;;;;;;;5.58;100.00;152794.97;5081458;28;20494;-79
2023/03/12 10:25:01;;;;;;;9.13;6.20;;;;;;;5.60;100.00;152798.81;5063657;28;20437;-78
2023/03/12 10:27:29;;;;;;;8.63;6.60;;;;;;;5.77;100.00;152843.94;5072997;28;20464;-79
2023/03/12 10:29:57;;;;;;;8.00;6.40;;;;;;;5.99;100.00;152900.75;5079067;28;20684;-79
2023/03/12 10:32:27;;;;;;;7.40;5.90;;;;;;;6.03;100.00;152911.09;5079099;28;20457;-78
2023/03/12 10:34:56;;;;;;;7.87;6.03;;;;;;;6.06;100.00;152917.53;5061199;28;20548;-78
2023/03/12 10:37:26;;;;;;;7.90;6.60;;;;;;;6.07;100.00;152920.09;5073279;28;20453;-78
2023/03/12 10:39:54;;;;;;;7.23;5.60;;;;;;;6.24;100.00;152962.66;5077999;28;20491;-78
2023/03/12 10:42:34;;;;;;;8.07;5.77;;;;;;;6.28;100.00;152972.97;5077201;28;20924;-77
2023/03/12 10:45:21;;;;;;;7.60;6.17;;;;;;;6.31;100.00;152980.72;5061000;28;20552;-78
2023/03/12 10:47:50;;;;;;;5.57;4.80;;;;;;;6.38;100.00;152998.81;5049594;28;20445;-78
2023/03/12 10:50:18;;;;;;;5.60;4.77;;;;;;;6.31;100.00;152982.03;5080722;28;20485;-78
2023/03/12 10:52:48;;;;;;;2.47;2.20;;;;;;;6.44;100.00;153014.28;5062955;28;20486;-78
2023/03/12 10:55:22;;;;;;;2.33;1.73;;;;;;;6.31;100.00;152980.72;5080611;28;20497;-78
2023/03/12 10:57:49;;;;;;;2.33;1.87;;;;;;;6.59;100.00;153053.00;5064775;28;20844;-78
2023/03/12 11:00:21;;;;;;;3.00;1.80;;;;;;;6.52;100.00;153036.22;5081598;28;20540;-78
2023/03/12 11:02:57;;;;;;;2.90;2.47;;;;;;;6.57;100.00;153047.81;5069881;28;20458;-78
2023/03/12 11:05:26;;;;;;;1.83;1.60;;;;;;;6.53;100.00;153037.50;5078674;28;20480;-78
2023/03/12 11:07:55;;;;;;;2.93;2.03;;;;;;;6.46;100.00;153019.47;5065310;28;20555;-78
2023/03/12 11:10:24;;;;;;;3.87;2.40;;;;;;;6.73;100.00;153090.41;5061664;28;20449;-78
2023/03/12 11:12:58;;;;;;;2.80;2.00;;;;;;;7.02;100.00;153164.00;5078869;28;20532;-79
2023/03/12 11:15:27;;;;;;;3.43;2.70;;;;;;;7.21;100.00;153211.78;5061767;28;21048;-78
2023/03/12 11:18:18;;;;;;;2.57;2.17;;;;;;;7.26;100.00;153224.66;5081174;28;20474;-78
2023/03/12 11:20:46;;;;;;;2.63;2.20;;;;;;;7.32;100.00;153240.19;5065230;28;20589;-78
2023/03/12 11:23:15;;;;;;;2.70;1.80;;;;;;;7.19;100.00;153206.63;5063941;28;20449;-79
2023/03/12 11:25:42;;;;;;;2.63;2.17;;;;;;;7.25;100.00;153223.38;5079502;28;20532;-78